createdAt,value
2023-04-16T00:00:49.529Z,67.62
2023-04-16T00:03:16.193Z,68.14
2023-04-16T00:05:42.727Z,68.21
2023-04-16T00:08:09.114Z,67.02
2023-04-16T00:10:35.492Z,67.38
2023-04-16T00:13:01.919Z,66.50
2023-04-16T00:15:28.311Z,66.79
2023-04-16T00:17:54.750Z,67.25
2023-04-16T00:20:21.099Z,67.05
2023-04-16T00:22:47.489Z,66.75
2023-04-16T00:25:13.894Z,66.43
2023-04-16T00:27:40.286Z,66.59
2023-04-16T00:30:06.687Z,67.07
2023-04-16T00:32:33.082Z,66.25
2023-04-16T00:34:59.409Z,66.45
2023-04-16T00:37:25.782Z,66.31
2023-04-16T00:39:52.169Z,67.06
2023-04-16T00:42:18.516Z,67.81
2023-04-16T00:44:44.893Z,67.43
2023-04-16T00:47:11.255Z,68.54
2023-04-16T00:49:37.593Z,67.73
2023-04-16T00:52:03.947Z,67.72
2023-04-16T00:54:30.290Z,67.43
2023-04-16T00:56:56.622Z,67.91
2023-04-16T00:59:23.008Z,68.01
2023-04-16T01:01:49.524Z,67.36
2023-04-16T01:04:16.168Z,67.65
2023-04-16T01:06:42.657Z,67.41
2023-04-16T01:09:09.134Z,66.87
2023-04-16T01:11:35.657Z,66.59
2023-04-16T01:14:02.041Z,67.62
2023-04-16T01:16:28.521Z,67.86
2023-04-16T01:18:54.887Z,67.25
2023-04-16T01:21:21.262Z,68.14
2023-04-16T01:23:47.603Z,67.45
2023-04-16T01:26:13.958Z,67.38
2023-04-16T01:28:40.345Z,67.23
2023-04-16T01:31:06.718Z,68.03
2023-04-16T01:33:33.127Z,68.45
2023-04-16T01:35:59.463Z,67.50
2023-04-16T01:38:25.813Z,67.69
2023-04-16T01:40:52.197Z,67.64
2023-04-16T01:43:18.549Z,66.65
2023-04-16T01:45:44.910Z,66.84
2023-04-16T01:48:11.246Z,67.24
2023-04-16T01:50:37.582Z,67.82
2023-04-16T01:53:03.968Z,67.55
2023-04-16T01:55:30.330Z,66.90
2023-04-16T01:57:56.696Z,67.14
2023-04-16T02:00:23.032Z,66.70
2023-04-16T02:02:50.585Z,65.78
2023-04-16T02:05:17.070Z,66.64
2023-04-16T02:07:43.419Z,66.30
2023-04-16T02:10:09.813Z,66.91
2023-04-16T02:12:36.201Z,67.25
2023-04-16T02:15:02.590Z,66.88
2023-04-16T02:17:29.000Z,66.00
2023-04-16T02:19:55.404Z,66.89
2023-04-16T02:22:21.761Z,67.29
2023-04-16T02:24:48.171Z,68.23
2023-04-16T02:27:14.570Z,67.34
2023-04-16T02:29:40.926Z,67.03
2023-04-16T02:32:07.392Z,67.17
2023-04-16T02:34:33.824Z,67.35
2023-04-16T02:37:00.159Z,66.64
2023-04-16T02:39:26.537Z,65.53
2023-04-16T02:41:52.910Z,65.68
2023-04-16T02:44:19.242Z,65.32
2023-04-16T02:46:45.629Z,65.53
2023-04-16T02:49:12.200Z,64.90
2023-04-16T02:51:38.611Z,64.90
2023-04-16T02:54:05.028Z,65.89
2023-04-16T02:56:31.391Z,65.53
2023-04-16T02:58:57.732Z,65.65
2023-04-16T03:01:24.142Z,65.79
2023-04-16T03:03:50.576Z,66.56
2023-04-16T03:06:16.977Z,66.80
2023-04-16T03:08:43.322Z,67.68
2023-04-16T03:11:09.662Z,66.81
2023-04-16T03:13:36.043Z,67.16
2023-04-16T03:16:02.424Z,66.60
2023-04-16T03:18:28.842Z,67.14
2023-04-16T03:20:55.194Z,66.95
2023-04-16T03:23:21.538Z,66.93
2023-04-16T03:25:47.961Z,66.76
2023-04-16T03:28:14.356Z,67.40
2023-04-16T03:30:40.715Z,67.83
2023-04-16T03:33:07.059Z,66.41
2023-04-16T03:35:33.399Z,67.20
2023-04-16T03:37:59.789Z,66.85
2023-04-16T03:40:26.152Z,68.60
2023-04-16T03:42:52.500Z,68.66
2023-04-16T03:45:18.885Z,67.65
2023-04-16T03:47:45.317Z,68.41
2023-04-16T03:50:11.757Z,68.40
2023-04-16T03:52:38.192Z,68.05
2023-04-16T03:55:04.600Z,68.24
2023-04-16T03:57:30.938Z,66.94
2023-04-16T03:59:57.275Z,67.92
2023-04-16T04:02:23.817Z,68.72
2023-04-16T04:04:50.357Z,67.60
2023-04-16T04:07:16.731Z,68.58
2023-04-16T04:09:43.103Z,67.80
2023-04-16T04:12:09.500Z,68.52
2023-04-16T04:14:35.904Z,68.86
2023-04-16T04:17:02.265Z,68.31
2023-04-16T04:19:28.609Z,68.48
2023-04-16T04:21:54.955Z,68.41
2023-04-16T04:24:21.340Z,68.67
2023-04-16T04:26:47.689Z,68.38
2023-04-16T04:29:14.081Z,68.91
2023-04-16T04:31:40.480Z,69.15
2023-04-16T04:34:06.885Z,69.38
2023-04-16T04:36:33.235Z,68.58
2023-04-16T04:38:59.577Z,68.48
2023-04-16T04:41:25.923Z,69.59
2023-04-16T04:43:52.249Z,68.56
2023-04-16T04:46:18.748Z,68.98
2023-04-16T04:48:45.180Z,69.83
2023-04-16T04:51:11.524Z,69.73
2023-04-16T04:53:37.909Z,69.43
2023-04-16T04:56:12.157Z,67.84
2023-04-16T04:58:39.373Z,67.63
2023-04-16T05:01:05.788Z,67.29
2023-04-16T05:03:32.272Z,67.41
2023-04-16T05:05:58.671Z,67.64
2023-04-16T05:08:24.998Z,67.93
2023-04-16T05:10:51.343Z,68.53
2023-04-16T05:13:17.686Z,68.96
2023-04-16T05:15:44.014Z,68.84
2023-04-16T05:18:10.404Z,68.04
2023-04-16T05:20:36.795Z,68.08
2023-04-16T05:23:03.176Z,68.74
2023-04-16T05:25:29.518Z,69.40
2023-04-16T05:27:55.898Z,68.89
2023-04-16T05:30:22.243Z,69.02
2023-04-16T05:32:48.643Z,68.97
2023-04-16T05:35:17.317Z,69.61
2023-04-16T05:37:44.068Z,69.75
2023-04-16T05:40:10.443Z,69.81
2023-04-16T05:42:36.784Z,69.46
2023-04-16T05:45:03.116Z,70.11
2023-04-16T05:47:29.512Z,69.48
2023-04-16T05:49:55.904Z,69.47
2023-04-16T05:52:22.313Z,69.22
2023-04-16T05:54:48.707Z,69.31
2023-04-16T05:57:15.093Z,68.81
2023-04-16T05:59:41.433Z,68.88
2023-04-16T06:02:07.811Z,68.49
2023-04-16T06:04:34.198Z,68.37
2023-04-16T06:07:00.541Z,69.04
2023-04-16T06:09:26.923Z,68.47
2023-04-16T06:11:53.317Z,68.80
2023-04-16T06:14:19.687Z,69.01
2023-04-16T06:16:46.090Z,69.30
2023-04-16T06:19:12.519Z,69.63
2023-04-16T06:21:38.881Z,69.37
2023-04-16T06:24:05.281Z,69.19
2023-04-16T06:26:31.703Z,68.70
2023-04-16T06:28:58.048Z,68.30
2023-04-16T06:31:24.481Z,68.72
2023-04-16T06:33:50.904Z,68.74
2023-04-16T06:36:17.266Z,68.77
2023-04-16T06:38:43.674Z,67.93
2023-04-16T06:41:10.062Z,68.12
2023-04-16T06:43:36.427Z,67.94
2023-04-16T06:46:02.818Z,67.51
2023-04-16T06:48:29.208Z,67.55
2023-04-16T06:50:55.706Z,67.68
2023-04-16T06:53:22.137Z,67.45
2023-04-16T06:55:48.551Z,67.14
2023-04-16T06:58:14.930Z,66.97
2023-04-16T07:00:41.380Z,66.34
2023-04-16T07:03:07.965Z,66.46
2023-04-16T07:05:34.496Z,66.72
2023-04-16T07:08:00.868Z,66.26
2023-04-16T07:10:27.257Z,66.07
2023-04-16T07:12:53.652Z,65.82
2023-04-16T07:15:20.075Z,66.09
2023-04-16T07:17:46.501Z,65.98
2023-04-16T07:20:12.877Z,64.80
2023-04-16T07:22:39.227Z,65.01
2023-04-16T07:25:05.611Z,64.30
2023-04-16T07:27:31.951Z,63.76
2023-04-16T07:29:58.309Z,64.27
2023-04-16T07:32:24.786Z,65.05
2023-04-16T07:34:51.297Z,65.59
2023-04-16T07:37:17.675Z,64.72
2023-04-16T07:39:44.043Z,65.07
2023-04-16T07:42:10.409Z,65.16
2023-04-16T07:44:36.800Z,64.31
2023-04-16T07:47:04.880Z,63.04
2023-04-16T07:49:31.984Z,62.99
2023-04-16T07:51:58.348Z,63.32
2023-04-16T07:54:24.744Z,63.56
2023-04-16T07:56:51.125Z,64.23
2023-04-16T07:59:22.537Z,65.19
2023-04-16T08:01:49.762Z,65.14
2023-04-16T08:04:16.397Z,64.18
2023-04-16T08:06:42.950Z,63.85
2023-04-16T08:09:09.496Z,62.88
2023-04-16T08:11:36.062Z,61.06
2023-04-16T08:14:02.411Z,61.40
2023-04-16T08:16:28.833Z,59.87
2023-04-16T08:18:55.219Z,61.67
2023-04-16T08:21:21.565Z,61.99
2023-04-16T08:23:47.912Z,61.92
2023-04-16T08:26:14.253Z,59.54
2023-04-16T08:28:40.590Z,59.88
2023-04-16T08:31:06.941Z,62.69
2023-04-16T08:33:33.325Z,62.87
2023-04-16T08:35:59.671Z,62.99
2023-04-16T08:38:26.076Z,62.82
2023-04-16T08:40:52.449Z,62.83
2023-04-16T08:43:18.794Z,63.52
2023-04-16T08:45:45.135Z,61.16
2023-04-16T08:48:11.522Z,62.69
2023-04-16T08:50:37.917Z,62.82
2023-04-16T08:53:04.283Z,61.53
2023-04-16T08:55:30.677Z,61.61
2023-04-16T08:57:57.065Z,61.82
2023-04-16T09:00:23.418Z,62.32
2023-04-16T09:02:50.174Z,61.86
2023-04-16T09:05:16.765Z,62.13
2023-04-16T09:07:43.212Z,60.50
2023-04-16T09:10:09.538Z,61.45
2023-04-16T09:12:35.882Z,62.28
2023-04-16T09:15:02.217Z,62.24
2023-04-16T09:17:28.580Z,60.33
2023-04-16T09:19:54.959Z,60.78
2023-04-16T09:22:21.352Z,61.03
2023-04-16T09:24:47.744Z,60.82
2023-04-16T09:27:14.088Z,61.71
2023-04-16T09:29:40.475Z,61.33
2023-04-16T09:32:06.992Z,59.97
2023-04-16T09:34:33.398Z,59.63
2023-04-16T09:36:59.831Z,60.71
2023-04-16T09:39:26.179Z,61.25
2023-04-16T09:41:52.511Z,63.05
2023-04-16T09:44:18.860Z,61.30
2023-04-16T09:46:45.247Z,60.62
2023-04-16T09:49:11.769Z,58.80
2023-04-16T09:51:38.277Z,60.47
2023-04-16T09:54:04.678Z,61.32
2023-04-16T09:56:31.059Z,61.82
2023-04-16T09:58:57.413Z,61.08
2023-04-16T10:01:23.835Z,60.46
2023-04-16T10:03:50.449Z,60.69
2023-04-16T10:06:16.931Z,61.73
2023-04-16T10:08:43.279Z,61.86
2023-04-16T10:11:09.619Z,60.31
2023-04-16T10:13:35.986Z,60.26
2023-04-16T10:16:02.325Z,61.50
2023-04-16T10:18:28.671Z,60.76
2023-04-16T10:20:55.020Z,61.68
2023-04-16T10:23:21.398Z,61.62
2023-04-16T10:25:47.755Z,61.75
2023-04-16T10:28:14.130Z,61.42
2023-04-16T10:30:40.567Z,61.06
2023-04-16T10:33:07.079Z,61.46
2023-04-16T10:35:33.531Z,60.59
2023-04-16T10:37:59.867Z,60.26
2023-04-16T10:40:26.244Z,60.43
2023-04-16T10:42:52.697Z,61.50
2023-04-16T10:45:19.039Z,61.73
2023-04-16T10:47:45.385Z,61.93
2023-04-16T10:50:11.769Z,62.79
2023-04-16T10:52:38.119Z,63.14
2023-04-16T10:55:04.512Z,62.56
2023-04-16T10:57:30.880Z,62.40
2023-04-16T10:59:57.283Z,62.64
2023-04-16T11:02:24.656Z,62.38
2023-04-16T11:04:52.933Z,61.54
2023-04-16T11:07:19.527Z,62.01
2023-04-16T11:09:45.966Z,60.40
2023-04-16T11:12:12.306Z,59.23
2023-04-16T11:14:38.700Z,60.28
2023-04-16T11:17:05.096Z,59.16
2023-04-16T11:19:31.459Z,58.22
2023-04-16T11:21:57.843Z,57.44
2023-04-16T11:24:26.209Z,56.78
2023-04-16T11:26:52.705Z,54.43
2023-04-16T11:29:19.047Z,53.61
2023-04-16T11:31:45.444Z,53.36
2023-04-16T11:34:11.861Z,54.61
2023-04-16T11:36:38.210Z,55.35
2023-04-16T11:39:04.551Z,52.43
2023-04-16T11:41:30.905Z,53.70
2023-04-16T11:43:57.243Z,56.53
2023-04-16T11:46:27.677Z,55.64
2023-04-16T11:48:54.255Z,55.83
2023-04-16T11:51:20.632Z,54.71
2023-04-16T11:53:46.990Z,55.91
2023-04-16T11:56:13.314Z,56.31
2023-04-16T11:58:43.357Z,55.94
2023-04-16T12:01:09.955Z,55.84
2023-04-16T12:03:36.618Z,57.11
2023-04-16T12:06:03.193Z,55.74
2023-04-16T12:08:29.546Z,56.66
2023-04-16T12:10:55.915Z,55.99
2023-04-16T12:13:22.315Z,54.89
2023-04-16T12:15:48.747Z,53.44
2023-04-16T12:18:15.121Z,53.97
2023-04-16T12:20:41.538Z,52.09
2023-04-16T12:23:07.912Z,53.14
2023-04-16T12:25:34.291Z,52.88
2023-04-16T12:28:00.756Z,50.43
2023-04-16T12:30:27.104Z,50.03
2023-04-16T12:32:53.534Z,50.11
2023-04-16T12:35:19.968Z,48.90
2023-04-16T12:37:46.382Z,48.83
2023-04-16T12:40:12.748Z,49.93
2023-04-16T12:42:39.233Z,48.57
2023-04-16T12:45:05.605Z,48.69
2023-04-16T12:47:32.069Z,49.77
2023-04-16T12:49:58.453Z,49.36
2023-04-16T12:52:24.855Z,49.66
2023-04-16T12:54:51.198Z,46.96
2023-04-16T12:57:17.532Z,47.53
2023-04-16T12:59:43.865Z,47.66
2023-04-16T13:02:10.352Z,50.21
2023-04-16T13:04:36.919Z,48.70
2023-04-16T13:07:03.313Z,46.24
2023-04-16T13:09:29.694Z,47.57
2023-04-16T13:11:56.078Z,46.46
2023-04-16T13:14:22.465Z,47.96
2023-04-16T13:16:48.853Z,48.47
2023-04-16T13:19:15.252Z,48.54
2023-04-16T13:21:41.610Z,47.07
2023-04-16T13:24:07.941Z,46.18
2023-04-16T13:26:34.280Z,45.15
2023-04-16T13:29:00.655Z,45.65
2023-04-16T13:31:27.172Z,44.87
2023-04-16T13:33:53.623Z,45.25
2023-04-16T13:36:20.041Z,45.06
2023-04-16T13:38:46.393Z,45.66
2023-04-16T13:41:12.774Z,45.16
2023-04-16T13:43:39.459Z,45.50
2023-04-16T13:46:05.894Z,47.17
2023-04-16T13:48:32.281Z,44.07
2023-04-16T13:50:58.940Z,45.02
2023-04-16T13:53:25.385Z,46.76
2023-04-16T13:55:51.789Z,45.68
2023-04-16T13:58:18.168Z,46.08
2023-04-16T14:00:44.581Z,46.26
2023-04-16T14:03:11.057Z,46.92
2023-04-16T14:05:37.524Z,47.16
2023-04-16T14:08:03.914Z,46.13
2023-04-16T14:10:30.568Z,46.94
2023-04-16T14:12:56.990Z,47.91
2023-04-16T14:15:23.329Z,47.93
2023-04-16T14:17:49.739Z,47.10
2023-04-16T14:20:16.376Z,48.88
2023-04-16T14:22:42.763Z,49.04
2023-04-16T14:25:09.182Z,48.30
2023-04-16T14:27:35.526Z,47.80
2023-04-16T14:30:01.877Z,48.34
2023-04-16T14:32:28.331Z,47.45
2023-04-16T14:34:54.893Z,47.14
2023-04-16T14:37:21.283Z,48.12
2023-04-16T14:39:47.725Z,47.99
2023-04-16T14:42:14.072Z,49.35
2023-04-16T14:44:40.412Z,48.49
2023-04-16T14:47:06.752Z,49.03
2023-04-16T14:49:33.140Z,49.21
2023-04-16T14:51:59.490Z,49.96
2023-04-16T14:54:25.825Z,49.66
2023-04-16T14:56:52.154Z,49.99
2023-04-16T14:59:18.711Z,49.04
2023-04-16T15:01:45.200Z,49.66
2023-04-16T15:04:11.770Z,49.50
2023-04-16T15:06:38.317Z,49.28
2023-04-16T15:09:04.788Z,48.75
2023-04-16T15:11:31.159Z,48.79
2023-04-16T15:13:57.558Z,48.03
2023-04-16T15:16:23.960Z,47.61
2023-04-16T15:18:50.389Z,46.27
2023-04-16T15:21:16.768Z,46.11
2023-04-16T15:23:43.169Z,46.85
2023-04-16T15:26:09.525Z,48.27
2023-04-16T15:28:35.871Z,48.61
2023-04-16T15:31:02.277Z,48.83
2023-04-16T15:33:28.712Z,47.89
2023-04-16T15:35:55.120Z,48.52
2023-04-16T15:38:21.541Z,48.27
2023-04-16T15:40:47.907Z,48.16
2023-04-16T15:43:14.340Z,48.99
2023-04-16T15:45:40.724Z,49.34
2023-04-16T15:48:07.136Z,49.37
2023-04-16T15:50:33.516Z,50.70
2023-04-16T15:52:59.842Z,48.95
2023-04-16T15:55:26.188Z,49.05
2023-04-16T15:57:52.564Z,49.30
2023-04-16T16:00:18.966Z,49.70
2023-04-16T16:02:45.510Z,49.59
2023-04-16T16:05:12.036Z,50.60
2023-04-16T16:07:38.398Z,50.71
2023-04-16T16:10:04.774Z,51.09
2023-04-16T16:12:31.165Z,52.55
2023-04-16T16:14:57.508Z,51.04
2023-04-16T16:17:23.952Z,52.13
2023-04-16T16:19:50.358Z,53.79
2023-04-16T16:22:16.747Z,54.11
2023-04-16T16:24:43.130Z,53.39
2023-04-16T16:27:09.515Z,52.71
2023-04-16T16:29:35.856Z,52.35
2023-04-16T16:32:02.315Z,53.51
2023-04-16T16:34:28.803Z,53.32
2023-04-16T16:36:55.194Z,54.20
2023-04-16T16:39:21.560Z,54.24
2023-04-16T16:41:47.900Z,53.58
2023-04-16T16:44:14.254Z,54.01
2023-04-16T16:46:40.617Z,54.04
2023-04-16T16:49:07.056Z,54.75
2023-04-16T16:51:33.400Z,54.65
2023-04-16T16:53:59.758Z,55.36
2023-04-16T16:56:26.134Z,54.96
2023-04-16T16:58:52.478Z,54.11
2023-04-16T17:01:18.840Z,54.01
2023-04-16T17:03:45.301Z,53.13
2023-04-16T17:06:11.735Z,52.47
2023-04-16T17:08:38.114Z,53.75
2023-04-16T17:11:04.524Z,53.00
2023-04-16T17:13:30.941Z,52.16
2023-04-16T17:15:57.294Z,52.54
2023-04-16T17:18:23.691Z,53.87
2023-04-16T17:20:50.122Z,53.56
2023-04-16T17:23:16.468Z,53.74
2023-04-16T17:25:42.845Z,53.45
2023-04-16T17:28:09.239Z,52.66
2023-04-16T17:30:35.594Z,52.12
2023-04-16T17:33:02.034Z,52.03
2023-04-16T17:35:28.435Z,52.18
2023-04-16T17:37:54.779Z,52.51
2023-04-16T17:40:21.225Z,51.43
2023-04-16T17:42:47.588Z,52.30
2023-04-16T17:45:13.933Z,52.04
2023-04-16T17:47:40.358Z,52.36
2023-04-16T17:50:06.755Z,52.54
2023-04-16T17:52:33.199Z,51.97
2023-04-16T17:54:59.628Z,51.86
2023-04-16T17:57:26.028Z,51.91
2023-04-16T17:59:52.471Z,51.56
2023-04-16T18:02:18.924Z,51.63
2023-04-16T18:04:45.598Z,51.30
2023-04-16T18:07:12.148Z,52.17
2023-04-16T18:09:38.560Z,52.71
2023-04-16T18:12:04.958Z,52.63
2023-04-16T18:14:31.347Z,52.91
2023-04-16T18:16:57.745Z,53.07
2023-04-16T18:19:24.134Z,52.78
2023-04-16T18:21:50.483Z,52.21
2023-04-16T18:24:16.835Z,51.96
2023-04-16T18:26:46.239Z,51.73
2023-04-16T18:29:13.787Z,53.02
2023-04-16T18:31:40.405Z,51.91
2023-04-16T18:34:06.882Z,52.47
2023-04-16T18:36:33.337Z,53.68
2023-04-16T18:39:02.389Z,54.33
2023-04-16T18:41:29.238Z,54.32
2023-04-16T18:43:55.731Z,54.82
2023-04-16T18:46:22.112Z,55.38
2023-04-16T18:48:48.473Z,55.37
2023-04-16T18:51:16.266Z,55.67
2023-04-16T18:53:43.122Z,55.93
2023-04-16T18:56:09.462Z,55.54
2023-04-16T18:58:35.807Z,55.19
2023-04-16T19:01:02.248Z,55.32
2023-04-16T19:03:28.786Z,54.99
2023-04-16T19:05:55.317Z,54.84
2023-04-16T19:08:21.700Z,55.14
2023-04-16T19:10:48.098Z,54.76
2023-04-16T19:13:14.430Z,54.92
2023-04-16T19:15:40.800Z,54.98
2023-04-16T19:18:07.136Z,55.17
2023-04-16T19:20:33.473Z,55.93
2023-04-16T19:22:59.805Z,56.23
2023-04-16T19:25:26.225Z,56.76
2023-04-16T19:27:52.591Z,56.96
2023-04-16T19:30:18.930Z,56.71
2023-04-16T19:32:45.300Z,56.89
2023-04-16T19:35:11.676Z,57.99
2023-04-16T19:37:38.024Z,57.81
2023-04-16T19:40:04.372Z,57.54
2023-04-16T19:42:30.749Z,57.63
2023-04-16T19:44:57.109Z,57.45
2023-04-16T19:47:23.438Z,57.76
2023-04-16T19:49:49.818Z,57.72
2023-04-16T19:52:16.154Z,57.89
2023-04-16T19:54:42.515Z,57.60
2023-04-16T19:57:08.850Z,58.09
2023-04-16T19:59:35.225Z,57.55
2023-04-16T20:02:01.727Z,57.17
2023-04-16T20:04:28.191Z,56.87
2023-04-16T20:06:54.605Z,56.84
2023-04-16T20:09:21.004Z,57.69
2023-04-16T20:11:47.385Z,57.72
2023-04-16T20:14:13.778Z,58.52
2023-04-16T20:16:40.220Z,58.08
2023-04-16T20:19:08.701Z,57.33
2023-04-16T20:21:35.535Z,57.78
2023-04-16T20:24:01.948Z,57.40
2023-04-16T20:26:28.394Z,57.35
2023-04-16T20:28:54.763Z,57.54
2023-04-16T20:31:21.164Z,57.99
2023-04-16T20:33:47.534Z,57.77
2023-04-16T20:36:13.926Z,58.68
2023-04-16T20:38:40.310Z,59.16
2023-04-16T20:41:06.669Z,58.75
2023-04-16T20:43:33.007Z,58.18
2023-04-16T20:45:59.366Z,58.16
2023-04-16T20:48:25.947Z,57.97
2023-04-16T20:50:52.392Z,57.88
2023-04-16T20:53:18.769Z,58.24
2023-04-16T20:55:45.113Z,57.90
2023-04-16T20:58:11.442Z,57.61
2023-04-16T21:00:37.778Z,57.85
2023-04-16T21:03:04.350Z,58.30
2023-04-16T21:05:30.838Z,58.39
2023-04-16T21:07:57.193Z,58.35
2023-04-16T21:10:23.529Z,58.53
2023-04-16T21:12:49.907Z,58.74
2023-04-16T21:15:16.302Z,59.22
2023-04-16T21:17:42.788Z,59.51
2023-04-16T21:20:09.221Z,59.76
2023-04-16T21:22:35.605Z,59.60
2023-04-16T21:25:01.991Z,59.63
2023-04-16T21:27:28.331Z,59.78
2023-04-16T21:29:54.714Z,59.36
2023-04-16T21:32:21.090Z,59.34
2023-04-16T21:34:47.480Z,59.12
2023-04-16T21:37:13.868Z,58.88
2023-04-16T21:39:40.253Z,59.20
2023-04-16T21:42:06.612Z,58.57
2023-04-16T21:44:32.987Z,58.79
2023-04-16T21:46:59.493Z,58.83
2023-04-16T21:49:25.927Z,58.55
2023-04-16T21:51:52.269Z,58.73
2023-04-16T21:54:18.641Z,59.06
2023-04-16T21:56:45.057Z,59.53
2023-04-16T21:59:11.612Z,59.33
2023-04-16T22:01:38.173Z,60.10
2023-04-16T22:04:04.544Z,60.11
2023-04-16T22:06:30.930Z,61.18
2023-04-16T22:08:57.262Z,61.64
2023-04-16T22:11:23.610Z,61.34
2023-04-16T22:13:49.995Z,61.72
2023-04-16T22:16:16.438Z,61.61
2023-04-16T22:18:42.867Z,62.55
2023-04-16T22:21:09.224Z,61.88
2023-04-16T22:23:35.577Z,61.70
2023-04-16T22:26:01.906Z,61.94
2023-04-16T22:28:28.244Z,61.70
2023-04-16T22:30:54.622Z,61.92
2023-04-16T22:33:20.997Z,61.51
2023-04-16T22:35:47.397Z,60.94
2023-04-16T22:38:13.734Z,61.31
2023-04-16T22:40:40.111Z,61.95
2023-04-16T22:43:06.510Z,62.51
2023-04-16T22:45:32.859Z,63.46
2023-04-16T22:47:59.284Z,63.37
2023-04-16T22:50:25.688Z,63.51
2023-04-16T22:52:52.077Z,64.08
2023-04-16T22:55:18.500Z,64.44
2023-04-16T22:57:44.916Z,64.69
2023-04-16T23:00:11.310Z,64.66
2023-04-16T23:02:37.750Z,64.90
2023-04-16T23:05:04.189Z,64.40
2023-04-16T23:07:30.529Z,64.16
2023-04-16T23:09:56.879Z,64.68
2023-04-16T23:12:23.217Z,64.58
2023-04-16T23:14:49.593Z,64.61
2023-04-16T23:17:15.988Z,64.93
2023-04-16T23:19:42.428Z,65.35
2023-04-16T23:22:08.816Z,65.89
2023-04-16T23:24:35.204Z,65.88
2023-04-16T23:27:01.589Z,65.47
2023-04-16T23:29:27.954Z,65.21
2023-04-16T23:31:54.378Z,65.17
2023-04-16T23:34:20.776Z,65.83
2023-04-16T23:36:47.147Z,66.03
2023-04-16T23:39:14.642Z,66.13
2023-04-16T23:41:40.978Z,66.22
2023-04-16T23:44:07.334Z,66.25
2023-04-16T23:46:33.686Z,66.29
2023-04-16T23:49:00.048Z,66.90
2023-04-16T23:51:26.375Z,66.99
2023-04-16T23:53:52.736Z,66.96
2023-04-16T23:56:19.117Z,66.91
2023-04-16T23:58:45.488Z,67.29
